AAL212 KSAT-KAUS
Flight info
| Callsign | AAL212 |
|---|---|
| Flight time | 0h 17m |
| Altitude | 13000 |
| Route | SAT V550 CWK/N0370F120 |
| Aircraft | A319/M-SDE3FGHIRWY/LB1 |
Departure
| Time | 2026-04-29 21:46 |
|---|---|
| Airport | San Antonio International Airport (KSAT) |
Arrival
| Time | 2026-04-29 22:03 |
|---|---|
| Airport | Austin Bergstrom International Airport (KAUS) |
| Time | Latitude | Longitude | Altitude | Speed | Heading |
|---|---|---|---|---|---|
| 2026-04-29 21:25 | 29.52814 | -98.47182 | 793 ft | 0 kts | 330° |
| 2026-04-29 21:36 | 29.52800 | -98.47171 | 793 ft | 4 kts | 322° |
| 2026-04-29 21:36 | 29.52783 | -98.47157 | 793 ft | 3 kts | 348° |
| 2026-04-29 21:37 | 29.52771 | -98.47160 | 793 ft | 2 kts | 36° |
| 2026-04-29 21:37 | 29.52766 | -98.47164 | 793 ft | 0 kts | 39° |
| 2026-04-29 21:39 | 29.52776 | -98.47151 | 792 ft | 6 kts | 51° |
| 2026-04-29 21:39 | 29.52820 | -98.47091 | 792 ft | 12 kts | 43° |
| 2026-04-29 21:40 | 29.52904 | -98.47088 | 794 ft | 14 kts | 320° |
| 2026-04-29 21:40 | 29.52980 | -98.47183 | 795 ft | 18 kts | 314° |
| 2026-04-29 21:40 | 29.53065 | -98.47288 | 798 ft | 17 kts | 311° |
| 2026-04-29 21:40 | 29.53127 | -98.47392 | 799 ft | 16 kts | 308° |
| 2026-04-29 21:41 | 29.53217 | -98.47409 | 798 ft | 13 kts | 351° |
| 2026-04-29 21:41 | 29.53293 | -98.47482 | 800 ft | 15 kts | 311° |
| 2026-04-29 21:41 | 29.53369 | -98.47581 | 800 ft | 17 kts | 312° |
| 2026-04-29 21:41 | 29.53432 | -98.47661 | 800 ft | 13 kts | 311° |
| 2026-04-29 21:42 | 29.53490 | -98.47736 | 801 ft | 12 kts | 312° |
| 2026-04-29 21:42 | 29.53553 | -98.47816 | 804 ft | 16 kts | 311° |
| 2026-04-29 21:42 | 29.53640 | -98.47930 | 806 ft | 21 kts | 311° |
| 2026-04-29 21:42 | 29.53742 | -98.48060 | 812 ft | 22 kts | 312° |
| 2026-04-29 21:43 | 29.53848 | -98.48195 | 811 ft | 24 kts | 312° |
| 2026-04-29 21:43 | 29.53961 | -98.48335 | 815 ft | 24 kts | 310° |
| 2026-04-29 21:43 | 29.54068 | -98.48477 | 817 ft | 21 kts | 312° |
| 2026-04-29 21:43 | 29.54154 | -98.48584 | 818 ft | 15 kts | 317° |
| 2026-04-29 21:44 | 29.54171 | -98.48597 | 818 ft | 0 kts | 338° |
| 2026-04-29 21:44 | 29.54173 | -98.48598 | 818 ft | 1 kts | 339° |
| 2026-04-29 21:44 | 29.54200 | -98.48594 | 819 ft | 7 kts | 22° |
| 2026-04-29 21:44 | 29.54248 | -98.48548 | 818 ft | 11 kts | 78° |
| 2026-04-29 21:45 | 29.54228 | -98.48489 | 817 ft | 0 kts | 131° |
| 2026-04-29 21:45 | 29.54179 | -98.48426 | 815 ft | 38 kts | 131° |
| 2026-04-29 21:45 | 29.53840 | -98.47991 | 812 ft | 108 kts | 132° |
| 2026-04-29 21:45 | 29.53186 | -98.47153 | 826 ft | 170 kts | 131° |
| 2026-04-29 21:46 | 29.52332 | -98.46066 | 1326 ft | 196 kts | 130° |
| 2026-04-29 21:46 | 29.51344 | -98.44825 | 1766 ft | 226 kts | 131° |
| 2026-04-29 21:46 | 29.50234 | -98.43456 | 2302 ft | 234 kts | 131° |
| 2026-04-29 21:46 | 29.49255 | -98.41929 | 2870 ft | 247 kts | 107° |
| 2026-04-29 21:47 | 29.49199 | -98.39957 | 3454 ft | 254 kts | 70° |
| 2026-04-29 21:47 | 29.50140 | -98.38206 | 4045 ft | 266 kts | 44° |
| 2026-04-29 21:47 | 29.51718 | -98.37118 | 4627 ft | 269 kts | 19° |
| 2026-04-29 21:47 | 29.53536 | -98.36477 | 5159 ft | 274 kts | 15° |
| 2026-04-29 21:48 | 29.55359 | -98.35831 | 5697 ft | 276 kts | 18° |
| 2026-04-29 21:48 | 29.57173 | -98.35059 | 6240 ft | 280 kts | 19° |
| 2026-04-29 21:48 | 29.59006 | -98.34261 | 6750 ft | 283 kts | 18° |
| 2026-04-29 21:48 | 29.60855 | -98.33495 | 7273 ft | 283 kts | 17° |
| 2026-04-29 21:49 | 29.62719 | -98.32730 | 7804 ft | 286 kts | 17° |
| 2026-04-29 21:49 | 29.64597 | -98.31944 | 8338 ft | 288 kts | 17° |
| 2026-04-29 21:49 | 29.66481 | -98.31153 | 8883 ft | 290 kts | 17° |
| 2026-04-29 21:49 | 29.68387 | -98.30359 | 9441 ft | 292 kts | 16° |
| 2026-04-29 21:50 | 29.70304 | -98.29559 | 9969 ft | 294 kts | 16° |
| 2026-04-29 21:50 | 29.72250 | -98.28746 | 10485 ft | 303 kts | 16° |
| 2026-04-29 21:50 | 29.74280 | -98.27901 | 10945 ft | 320 kts | 16° |
| 2026-04-29 21:50 | 29.76473 | -98.26990 | 10966 ft | 347 kts | 16° |
| 2026-04-29 21:51 | 29.78753 | -98.26029 | 10966 ft | 353 kts | 17° |
| 2026-04-29 21:51 | 29.81092 | -98.25044 | 10961 ft | 361 kts | 17° |
| 2026-04-29 21:51 | 29.85720 | -98.23102 | 10204 ft | 342 kts | 16° |
| 2026-04-29 21:52 | 29.87921 | -98.22179 | 9783 ft | 332 kts | 16° |
| 2026-04-29 21:52 | 29.90059 | -98.21284 | 9331 ft | 322 kts | 16° |
| 2026-04-29 21:52 | 29.92140 | -98.20412 | 8883 ft | 314 kts | 17° |
| 2026-04-29 21:52 | 29.94172 | -98.19559 | 8445 ft | 308 kts | 17° |
| 2026-04-29 21:53 | 29.96163 | -98.18722 | 8005 ft | 301 kts | 17° |
| 2026-04-29 21:53 | 29.98116 | -98.17902 | 7580 ft | 296 kts | 18° |
| 2026-04-29 21:53 | 30.00034 | -98.17096 | 7157 ft | 291 kts | 18° |
| 2026-04-29 21:53 | 30.01909 | -98.16306 | 6948 ft | 279 kts | 18° |
| 2026-04-29 21:54 | 30.03752 | -98.15532 | 6960 ft | 287 kts | 18° |
| 2026-04-29 21:54 | 30.05601 | -98.14755 | 6961 ft | 283 kts | 18° |
| 2026-04-29 21:54 | 30.07468 | -98.13969 | 6964 ft | 283 kts | 18° |
| 2026-04-29 21:54 | 30.09284 | -98.13034 | 6888 ft | 294 kts | 33° |
| 2026-04-29 21:55 | 30.10621 | -98.11287 | 6510 ft | 292 kts | 62° |
| 2026-04-29 21:55 | 30.11145 | -98.09049 | 6109 ft | 289 kts | 89° |
| 2026-04-29 21:55 | 30.11004 | -98.06760 | 5680 ft | 284 kts | 97° |
| 2026-04-29 21:55 | 30.10770 | -98.04513 | 5246 ft | 280 kts | 97° |
| 2026-04-29 21:56 | 30.10564 | -98.02287 | 4813 ft | 277 kts | 96° |
| 2026-04-29 21:56 | 30.10376 | -98.00084 | 4378 ft | 274 kts | 96° |
| 2026-04-29 21:56 | 30.10181 | -97.97903 | 3940 ft | 272 kts | 96° |
| 2026-04-29 21:56 | 30.09984 | -97.95746 | 3498 ft | 268 kts | 96° |
| 2026-04-29 21:57 | 30.09794 | -97.93623 | 3064 ft | 263 kts | 96° |
| 2026-04-29 21:57 | 30.09614 | -97.91589 | 2971 ft | 244 kts | 95° |
| 2026-04-29 21:57 | 30.09444 | -97.89691 | 2975 ft | 235 kts | 95° |
| 2026-04-29 21:57 | 30.09275 | -97.87833 | 2794 ft | 229 kts | 95° |
| 2026-04-29 21:58 | 30.09111 | -97.86016 | 2623 ft | 226 kts | 94° |
| 2026-04-29 21:58 | 30.08953 | -97.84250 | 2490 ft | 220 kts | 95° |
| 2026-04-29 21:58 | 30.08792 | -97.82468 | 2509 ft | 231 kts | 95° |
| 2026-04-29 21:58 | 30.08628 | -97.80683 | 2503 ft | 218 kts | 95° |
| 2026-04-29 21:59 | 30.08466 | -97.78877 | 2508 ft | 225 kts | 95° |
| 2026-04-29 21:59 | 30.08306 | -97.77095 | 2517 ft | 229 kts | 95° |
| 2026-04-29 21:59 | 30.08141 | -97.75292 | 2552 ft | 218 kts | 94° |
| 2026-04-29 21:59 | 30.07988 | -97.73629 | 2511 ft | 198 kts | 95° |
| 2026-04-29 22:00 | 30.07844 | -97.72066 | 2508 ft | 194 kts | 95° |
| 2026-04-29 22:00 | 30.07708 | -97.70566 | 2514 ft | 188 kts | 94° |
| 2026-04-29 22:00 | 30.07756 | -97.69055 | 2375 ft | 188 kts | 69° |
| 2026-04-29 22:00 | 30.08587 | -97.67938 | 2095 ft | 186 kts | 31° |
| 2026-04-29 22:01 | 30.09794 | -97.67621 | 2129 ft | 183 kts | 3° |
| 2026-04-29 22:01 | 30.11141 | -97.67667 | 1886 ft | 195 kts | 1° |
| 2026-04-29 22:01 | 30.12460 | -97.67702 | 1634 ft | 185 kts | 1° |
| 2026-04-29 22:01 | 30.13748 | -97.67732 | 1394 ft | 182 kts | 1° |
| 2026-04-29 22:02 | 30.14944 | -97.67771 | 1147 ft | 161 kts | 359° |
| 2026-04-29 22:02 | 30.15987 | -97.67799 | 930 ft | 140 kts | 359° |
| 2026-04-29 22:02 | 30.16919 | -97.67821 | 742 ft | 131 kts | 0° |
| 2026-04-29 22:02 | 30.17817 | -97.67845 | 571 ft | 127 kts | 359° |
| 2026-04-29 22:03 | 30.18626 | -97.67864 | 505 ft | 89 kts | 359° |
| 2026-04-29 22:03 | 30.19009 | -97.67874 | 515 ft | 48 kts | 358° |
| 2026-04-29 22:03 | 30.19310 | -97.67880 | 519 ft | 33 kts | 2° |
| 2026-04-29 22:03 | 30.19390 | -97.67776 | 519 ft | 15 kts | 88° |
| 2026-04-29 22:04 | 30.19394 | -97.67657 | 519 ft | 14 kts | 88° |
| 2026-04-29 22:04 | 30.19396 | -97.67548 | 519 ft | 15 kts | 89° |
| 2026-04-29 22:04 | 30.19400 | -97.67395 | 517 ft | 23 kts | 82° |
| 2026-04-29 22:04 | 30.19514 | -97.67325 | 516 ft | 21 kts | 358° |
| 2026-04-29 22:05 | 30.19658 | -97.67326 | 516 ft | 22 kts | 359° |
| 2026-04-29 22:05 | 30.19821 | -97.67330 | 517 ft | 23 kts | 359° |
| 2026-04-29 22:05 | 30.19896 | -97.67204 | 517 ft | 13 kts | 88° |
| 2026-04-29 22:06 | 30.19900 | -97.67080 | 516 ft | 18 kts | 89° |
| 2026-04-29 22:06 | 30.19956 | -97.66994 | 515 ft | 12 kts | 13° |
| 2026-04-29 22:06 | 30.20031 | -97.66985 | 516 ft | 9 kts | 4° |
| 2026-04-29 22:06 | 30.20081 | -97.67001 | 518 ft | 6 kts | 321° |
| 2026-04-29 22:07 | 30.20104 | -97.67052 | 519 ft | 9 kts | 276° |
| 2026-04-29 22:07 | 30.20121 | -97.67139 | 520 ft | 13 kts | 289° |
| 2026-04-29 22:07 | 30.20189 | -97.67210 | 522 ft | 12 kts | 356° |
| 2026-04-29 22:07 | 30.20257 | -97.67196 | 522 ft | 10 kts | 24° |
| 2026-04-29 22:08 | 30.20312 | -97.67136 | 522 ft | 11 kts | 65° |
| 2026-04-29 22:08 | 30.20313 | -97.67086 | 521 ft | 8 kts | 117° |
| 2026-04-29 22:08 | 30.20275 | -97.67069 | 521 ft | 3 kts | 176° |
| 2026-04-29 22:08 | 30.20266 | -97.67068 | 521 ft | 0 kts | 177° |
| 2026-04-29 22:09 | 30.20258 | -97.67067 | 521 ft | 0 kts | 177° |